Time;durP1;ratioP1;P1;durP2;ratioP2;P2;SDS_P1;SDS_P2;PMS_P1;PMS_P2;Temp;Humidity;BMP_temperature;BMP_pressure;BME280_temperature;BME280_humidity;BME280_pressure;Samples;Min_cycle;Max_cycle;Signal;HPM_P1;HPM_P2
2021/07/25 00:00:12;;;;;;;12.07;5.63;;;;;;;17.22;67.56;99701.75;4857321;29;20113;-52
2021/07/25 00:02:38;;;;;;;15.50;6.07;;;;;;;17.26;67.44;99698.03;4842997;29;20057;-49
2021/07/25 00:05:07;;;;;;;15.77;5.63;;;;;;;17.30;67.45;99702.13;4843026;29;20057;-52
2021/07/25 00:07:32;;;;;;;13.63;6.43;;;;;;;17.34;67.55;99695.75;4859298;29;20046;-50
2021/07/25 00:09:58;;;;;;;14.35;5.18;;;;;;;17.38;67.60;99699.88;4859123;29;20071;-50
2021/07/25 00:12:24;;;;;;;16.15;6.78;;;;;;;17.41;67.25;99704.97;4859103;29;20147;-51
2021/07/25 00:14:50;;;;;;;13.55;6.25;;;;;;;17.43;67.47;99704.88;4859069;29;20049;-52
2021/07/25 00:17:30;;;;;;;12.77;5.95;;;;;;;17.48;67.33;99710.69;5087313;27;1373352;-52
2021/07/25 00:19:55;;;;;;;14.25;5.93;;;;;;;17.52;67.27;99701.66;5128100;28;21449;-50
2021/07/25 00:22:21;;;;;;;10.65;6.22;;;;;;;17.53;67.30;99704.22;5129291;27;20059;-53
2021/07/25 00:24:52;;;;;;;14.38;6.10;;;;;;;17.53;67.41;99698.94;5129221;27;20062;-50
2021/07/25 00:27:26;;;;;;;11.43;6.15;;;;;;;17.59;67.21;99710.84;5631352;22;20045;-54
2021/07/25 00:29:53;;;;;;;15.25;5.75;;;;;;;17.61;67.52;99712.47;5042917;28;20074;-52
2021/07/25 00:32:19;;;;;;;10.50;6.13;;;;;;;17.63;67.19;99715.88;5065354;28;20515;-50
2021/07/25 00:34:44;;;;;;;15.23;6.32;;;;;;;17.65;67.12;99716.59;5058747;28;20041;-51
2021/07/25 00:37:17;;;;;;;10.57;6.05;;;;;;;17.67;67.09;99719.13;5062659;28;20487;-50
2021/07/25 00:39:43;;;;;;;17.05;6.53;;;;;;;17.69;66.89;99717.25;5042887;28;20041;-52
2021/07/25 00:42:08;;;;;;;14.43;6.13;;;;;;;17.64;66.90;99714.91;5043177;28;20084;-50
2021/07/25 00:44:34;;;;;;;16.45;6.50;;;;;;;17.60;66.76;99715.19;5035167;28;20041;-51
2021/07/25 00:47:00;;;;;;;13.85;6.22;;;;;;;17.65;66.52;99718.38;5027722;28;20534;-52
2021/07/25 00:49:26;;;;;;;26.58;7.38;;;;;;;17.69;66.58;99714.63;5021833;28;20124;-51
2021/07/25 00:51:53;;;;;;;17.10;5.60;;;;;;;17.66;66.58;99710.41;5028481;28;20044;-52
2021/07/25 00:54:20;;;;;;;19.20;6.88;;;;;;;17.63;66.81;99717.66;5052576;28;20049;-53
2021/07/25 00:56:45;;;;;;;21.17;6.63;;;;;;;17.56;67.46;99718.94;5048935;28;20046;-53
2021/07/25 00:59:12;;;;;;;14.73;6.30;;;;;;;17.50;67.89;99724.56;5040042;28;20049;-52
2021/07/25 01:01:38;;;;;;;13.85;6.10;;;;;;;17.47;67.62;99722.13;5062127;28;20507;-51
2021/07/25 01:04:16;;;;;;;14.57;6.15;;;;;;;17.47;67.61;99722.13;5029924;28;20147;-53
2021/07/25 01:07:00;;;;;;;16.58;6.35;;;;;;;17.44;67.75;99714.41;5027385;28;20419;-50
2021/07/25 01:09:44;;;;;;;15.68;6.22;;;;;;;17.51;67.55;99716.59;5047788;28;20585;-51
2021/07/25 01:12:42;;;;;;;13.68;5.78;;;;;;;17.54;66.86;99721.63;5062215;28;20068;-51
2021/07/25 01:15:09;;;;;;;14.25;6.60;;;;;;;17.61;66.84;99716.88;5007602;28;20144;-51
2021/07/25 01:17:35;;;;;;;10.88;5.93;;;;;;;17.67;66.62;99714.72;5035262;28;20643;-53
2021/07/25 01:20:05;;;;;;;15.90;6.13;;;;;;;17.72;66.32;99722.31;5040656;28;20083;-51
2021/07/25 01:22:37;;;;;;;15.43;5.93;;;;;;;17.74;66.16;99720.44;5046617;28;20519;-54
2021/07/25 01:25:04;;;;;;;10.48;5.78;;;;;;;17.78;65.89;99725.41;5038999;28;20049;-53
2021/07/25 01:27:35;;;;;;;11.43;5.80;;;;;;;17.82;65.93;99726.06;5022304;28;20581;-54
2021/07/25 01:30:04;;;;;;;17.08;6.28;;;;;;;17.81;65.49;99729.63;5030879;28;20054;-55
2021/07/25 01:32:30;;;;;;;;;;;;;;;17.74;64.76;99729.16;5045356;28;20463;-49
2021/07/25 01:34:58;;;;;;;14.48;6.40;;;;;;;17.77;64.62;99723.72;5039778;28;19972;-53
2021/07/25 01:37:26;;;;;;;13.80;5.95;;;;;;;17.83;65.12;99729.53;5039575;28;20061;-53
2021/07/25 01:39:52;;;;;;;13.75;5.95;;;;;;;17.84;64.74;99726.81;5036636;28;20076;-53
2021/07/25 01:42:29;;;;;;;12.88;6.30;;;;;;;17.86;64.38;99724.91;5039437;28;20268;-53
2021/07/25 01:44:54;;;;;;;13.05;5.32;;;;;;;17.86;63.87;99724.06;5033337;28;20040;-52
2021/07/25 01:47:20;;;;;;;15.07;5.55;;;;;;;17.85;63.46;99730.28;5024406;28;20045;-52
2021/07/25 01:49:46;;;;;;;17.38;6.40;;;;;;;17.85;62.96;99731.09;5014775;28;20542;-54
2021/07/25 01:52:11;;;;;;;13.55;6.07;;;;;;;17.87;62.97;99731.03;5021001;28;20054;-51
2021/07/25 01:54:37;;;;;;;12.55;5.90;;;;;;;17.88;62.61;99733.56;5029045;28;20045;-53
2021/07/25 01:57:03;;;;;;;12.48;6.20;;;;;;;17.93;62.47;99738.53;5025097;28;20042;-52
2021/07/25 01:59:29;;;;;;;15.15;5.03;;;;;;;17.91;61.80;99735.97;5013628;28;20076;-53
2021/07/25 02:01:54;;;;;;;11.18;5.82;;;;;;;17.93;61.60;99735.91;5018412;28;20495;-53
2021/07/25 02:04:20;;;;;;;12.45;6.03;;;;;;;17.96;61.35;99738.31;5031489;28;20104;-54
2021/07/25 02:06:45;;;;;;;13.38;6.32;;;;;;;18.00;61.23;99734.56;5021318;28;20052;-50
2021/07/25 02:09:13;;;;;;;11.98;5.30;;;;;;;17.98;61.39;99739.06;5037544;28;20415;-53
2021/07/25 02:11:39;;;;;;;12.77;5.20;;;;;;;18.02;61.56;99745.81;5031440;28;20052;-49
2021/07/25 02:14:05;;;;;;;11.70;5.47;;;;;;;18.05;61.71;99748.28;5028793;28;20511;-53
2021/07/25 02:16:31;;;;;;;14.00;5.97;;;;;;;18.06;61.65;99744.69;5028848;28;20084;-52
2021/07/25 02:18:56;;;;;;;12.85;6.30;;;;;;;17.97;61.29;99745.28;5019611;28;20065;-53
2021/07/25 02:21:22;;;;;;;15.68;5.90;;;;;;;17.91;61.32;99743.88;5020907;28;20041;-57
2021/07/25 02:23:47;;;;;;;11.65;5.65;;;;;;;17.97;61.38;99758.44;5031749;28;20075;-54
2021/07/25 02:26:13;;;;;;;18.02;5.70;;;;;;;17.97;61.21;99761.06;5023637;28;20500;-50
2021/07/25 02:28:39;;;;;;;14.20;5.97;;;;;;;17.97;61.10;99758.44;5025557;28;20053;-54
2021/07/25 02:31:04;;;;;;;12.60;5.90;;;;;;;18.05;61.01;99764.91;5017194;28;20065;-50
2021/07/25 02:33:30;;;;;;;11.93;5.22;;;;;;;18.10;61.10;99764.63;5020614;28;20041;-51
2021/07/25 02:35:58;;;;;;;17.13;6.20;;;;;;;18.12;60.78;99762.72;5032456;28;20128;-53
2021/07/25 02:38:24;;;;;;;19.38;6.28;;;;;;;18.18;61.20;99767.59;5028725;28;20128;-49
2021/07/25 02:40:49;;;;;;;15.15;6.05;;;;;;;18.19;61.27;99774.53;5029038;28;20045;-49
2021/07/25 02:43:16;;;;;;;14.95;6.28;;;;;;;18.21;61.15;99772.66;5032035;28;20041;-50
2021/07/25 02:45:42;;;;;;;10.27;5.13;;;;;;;18.29;61.01;99772.16;5042160;28;20048;-50
2021/07/25 02:48:08;;;;;;;16.20;6.22;;;;;;;18.33;61.02;99779.75;5041104;28;20038;-50
2021/07/25 02:50:34;;;;;;;11.60;6.18;;;;;;;18.36;60.85;99784.84;5040761;28;20124;-51
2021/07/25 02:52:59;;;;;;;10.55;5.97;;;;;;;18.40;60.58;99782.84;5030743;28;20124;-52
2021/07/25 02:55:25;;;;;;;13.35;5.78;;;;;;;18.38;60.83;99790.84;5027846;28;20123;-51
2021/07/25 02:57:51;;;;;;;11.68;5.80;;;;;;;18.42;61.00;99787.06;5004893;28;20116;-53
2021/07/25 03:00:17;;;;;;;14.35;6.18;;;;;;;18.49;60.83;99787.50;5029938;28;20072;-51
2021/07/25 03:02:42;;;;;;;14.85;6.47;;;;;;;18.52;60.62;99788.16;5014700;28;20388;-52
2021/07/25 03:05:09;;;;;;;11.73;5.70;;;;;;;18.53;60.40;99794.25;5039003;28;20095;-52
2021/07/25 03:07:34;;;;;;;10.80;5.68;;;;;;;18.52;60.23;99797.84;5003687;28;20422;-54
2021/07/25 03:10:00;;;;;;;14.98;5.57;;;;;;;18.54;60.01;99793.34;5025808;28;20033;-54
2021/07/25 03:12:26;;;;;;;10.32;6.10;;;;;;;18.54;59.72;99796.81;5024775;28;20045;-51
2021/07/25 03:14:52;;;;;;;9.60;5.45;;;;;;;18.65;59.72;99796.13;5029981;28;20042;-51
2021/07/25 03:17:17;;;;;;;11.02;5.70;;;;;;;18.72;59.52;99799.22;5030443;28;20046;-51
2021/07/25 03:19:43;;;;;;;9.48;5.28;;;;;;;18.65;59.14;99795.28;5024045;28;20049;-53
2021/07/25 03:22:10;;;;;;;10.07;5.43;;;;;;;18.65;58.86;99796.13;5030981;28;20041;-53
2021/07/25 03:24:36;;;;;;;11.45;5.35;;;;;;;18.77;58.74;99802.38;5046667;28;20060;-53
2021/07/25 03:27:02;;;;;;;16.45;5.63;;;;;;;18.87;58.78;99800.81;5025173;28;20056;-53
2021/07/25 03:29:28;;;;;;;8.25;5.30;;;;;;;18.91;58.39;99808.41;5024953;28;20060;-54
2021/07/25 03:31:54;;;;;;;12.00;5.30;;;;;;;18.91;58.15;99802.31;5027353;28;20037;-52
2021/07/25 03:34:20;;;;;;;8.55;4.60;;;;;;;18.92;57.61;99802.22;5042541;28;20090;-54
2021/07/25 03:36:46;;;;;;;7.60;4.65;;;;;;;18.94;56.99;99805.59;5040734;28;20041;-53
2021/07/25 03:39:14;;;;;;;7.40;4.53;;;;;;;18.97;55.61;99810.66;5025943;28;20041;-52
2021/07/25 03:41:40;;;;;;;8.33;4.23;;;;;;;18.94;54.91;99810.03;5025179;28;20411;-53
2021/07/25 03:44:05;;;;;;;8.95;4.07;;;;;;;18.92;54.48;99811.91;5017396;28;20302;-50
2021/07/25 03:46:31;;;;;;;6.25;3.63;;;;;;;18.92;54.04;99817.16;5046998;28;20084;-53
2021/07/25 03:48:58;;;;;;;7.95;3.67;;;;;;;18.86;53.27;99815.78;5026910;28;20392;-51
2021/07/25 03:51:23;;;;;;;9.05;3.95;;;;;;;18.82;52.56;99816.94;5032626;28;20040;-50
2021/07/25 03:53:49;;;;;;;9.25;3.50;;;;;;;18.81;52.43;99819.66;5023602;28;20044;-52
2021/07/25 03:56:15;;;;;;;5.60;3.80;;;;;;;18.80;52.03;99808.28;5021489;28;20068;-55
2021/07/25 03:58:40;;;;;;;9.63;3.88;;;;;;;18.97;52.02;99820.34;5007915;28;20041;-52
2021/07/25 04:01:06;;;;;;;5.60;3.63;;;;;;;19.05;51.78;99818.88;5027107;28;20526;-54
2021/07/25 04:03:32;;;;;;;7.13;4.25;;;;;;;19.09;51.63;99819.53;5025952;28;20514;-52
2021/07/25 04:05:57;;;;;;;11.80;5.00;;;;;;;19.16;51.83;99814.66;5026507;28;20041;-53
2021/07/25 04:08:23;;;;;;;11.95;5.28;;;;;;;19.28;51.96;99809.41;5567711;22;20520;-55
2021/07/25 04:10:49;;;;;;;11.55;4.70;;;;;;;19.34;51.77;99823.97;5066999;28;20046;-53
2021/07/25 04:13:14;;;;;;;10.10;4.13;;;;;;;19.46;51.61;99825.81;5082771;28;20097;-51
2021/07/25 04:15:41;;;;;;;12.38;4.72;;;;;;;19.59;51.43;99823.16;5079296;28;20036;-54
2021/07/25 04:18:07;;;;;;;8.38;4.28;;;;;;;19.67;51.08;99818.22;5081220;28;20040;-55
2021/07/25 04:20:33;;;;;;;8.27;4.32;;;;;;;19.75;50.61;99832.56;5082560;28;20078;-51
2021/07/25 04:23:01;;;;;;;9.25;5.60;;;;;;;19.77;50.33;99835.09;5084920;28;20049;-49
2021/07/25 04:25:27;;;;;;;12.10;4.68;;;;;;;19.80;50.40;99834.88;5085583;28;20512;-54
2021/07/25 04:27:53;;;;;;;8.82;4.55;;;;;;;19.70;50.03;99834.66;5086552;28;20040;-53
2021/07/25 04:30:19;;;;;;;8.98;4.80;;;;;;;19.66;50.24;99832.34;5083338;28;20112;-56
2021/07/25 04:32:45;;;;;;;6.68;4.45;;;;;;;19.67;50.13;99834.91;5085344;28;20040;-53
2021/07/25 04:35:12;;;;;;;9.93;4.80;;;;;;;19.72;50.17;99831.94;5088503;28;20036;-55
2021/07/25 04:40:34;;;;;;;10.35;5.20;;;;;;;19.99;49.60;99834.44;4972534;23;20073;-54
2021/07/25 04:43:00;;;;;;;11.45;5.43;;;;;;;20.28;49.43;99838.47;4834860;29;20284;-53
2021/07/25 04:45:53;;;;;;;11.02;4.80;;;;;;;20.53;49.12;99842.84;4833503;29;20106;-54
2021/07/25 04:48:51;;;;;;;12.80;6.45;;;;;;;20.70;48.99;99843.31;4844989;29;20052;-56
2021/07/25 04:51:18;;;;;;;8.23;4.82;;;;;;;20.83;48.43;99847.72;4832998;29;20106;-53
2021/07/25 04:53:44;;;;;;;7.88;4.95;;;;;;;20.92;48.21;99845.22;4842277;29;20047;-52
2021/07/25 04:56:12;;;;;;;8.32;4.65;;;;;;;20.98;47.93;99850.06;4834452;29;20054;-51
2021/07/25 04:58:45;;;;;;;12.52;5.30;;;;;;;21.00;47.90;99847.28;4832764;29;20074;-53
2021/07/25 05:01:14;;;;;;;10.45;4.90;;;;;;;21.13;48.30;99843.63;4836136;29;20041;-53
2021/07/25 05:03:40;;;;;;;;;;;;;;;21.24;47.99;99849.94;4842617;29;20052;-53
2021/07/25 05:06:08;;;;;;;11.93;4.32;;;;;;;21.32;47.88;99858.13;4843313;29;20005;-51
2021/07/25 05:08:34;;;;;;;9.60;4.90;;;;;;;21.40;48.07;99861.88;4841208;29;20064;-50
2021/07/25 05:11:43;;;;;;;10.13;4.43;;;;;;;21.49;48.00;99855.88;4837997;29;20513;-53
2021/07/25 05:14:21;;;;;;;10.52;4.70;;;;;;;21.61;47.90;99851.47;4820504;29;20050;-51
2021/07/25 05:17:23;;;;;;;9.82;5.05;;;;;;;21.76;47.32;99858.22;4839846;29;20147;-53
2021/07/25 05:19:57;;;;;;;6.30;3.90;;;;;;;21.94;46.58;99856.78;4804528;29;20050;-52
2021/07/25 05:22:41;;;;;;;7.78;4.55;;;;;;;22.01;45.48;99851.00;4836257;29;20543;-53
2021/07/25 05:25:07;;;;;;;6.70;4.13;;;;;;;21.97;45.39;99850.41;4837216;29;20050;-53
2021/07/25 05:27:42;;;;;;;9.25;4.40;;;;;;;22.12;45.38;99849.22;4842127;29;20066;-51
2021/07/25 05:30:09;;;;;;;11.60;3.95;;;;;;;22.30;44.87;99850.38;4838400;29;20194;-52
2021/07/25 05:32:35;;;;;;;7.55;3.95;;;;;;;22.33;43.90;99859.91;4836232;29;20460;-50
2021/07/25 05:35:01;;;;;;;11.82;5.38;;;;;;;22.31;44.20;99854.72;4837478;29;20049;-51
2021/07/25 05:37:26;;;;;;;6.13;3.67;;;;;;;22.16;44.03;99847.16;4836781;29;20057;-54
2021/07/25 05:39:52;;;;;;;7.90;4.07;;;;;;;21.91;44.01;99851.72;4837366;29;20050;-55
2021/07/25 05:42:17;;;;;;;6.55;3.45;;;;;;;21.72;44.17;99854.09;4837408;29;20049;-51
2021/07/25 05:44:44;;;;;;;8.65;4.13;;;;;;;21.64;44.43;99847.72;4839072;29;20049;-51
2021/07/25 05:47:10;;;;;;;8.68;3.85;;;;;;;21.64;44.63;99842.44;4837574;29;20065;-53
2021/07/25 05:49:36;;;;;;;6.65;3.60;;;;;;;21.71;44.65;99852.44;5347709;23;20532;-55
2021/07/25 05:52:01;;;;;;;7.13;3.40;;;;;;;21.67;44.23;99853.59;4864760;29;20513;-53
2021/07/25 05:54:27;;;;;;;5.97;3.50;;;;;;;21.60;43.85;99854.22;4865422;29;20045;-54
2021/07/25 05:56:53;;;;;;;6.45;2.53;;;;;;;21.63;43.03;99854.81;4882436;29;20143;-54
2021/07/25 05:59:18;;;;;;;5.45;2.60;;;;;;;21.72;42.29;99854.09;4870164;29;20057;-54
2021/07/25 06:01:45;;;;;;;4.30;2.58;;;;;;;21.80;42.00;99862.28;4859271;29;20048;-52
2021/07/25 06:04:10;;;;;;;6.88;2.42;;;;;;;22.05;41.42;99857.75;4861187;29;20060;-55
2021/07/25 06:06:37;;;;;;;7.20;2.63;;;;;;;22.14;41.32;99865.78;4860336;29;20049;-55
2021/07/25 06:09:03;;;;;;;6.82;2.75;;;;;;;22.24;40.87;99853.50;4849236;29;20045;-54
2021/07/25 06:11:30;;;;;;;7.10;2.63;;;;;;;22.40;40.89;99866.38;4855699;29;20046;-55
2021/07/25 06:13:55;;;;;;;8.18;3.00;;;;;;;22.63;40.89;99862.72;4853782;29;20053;-54
2021/07/25 06:16:21;;;;;;;4.13;2.53;;;;;;;23.02;39.95;99863.09;4857609;29;20042;-53
2021/07/25 06:18:48;;;;;;;5.18;2.78;;;;;;;23.17;39.75;99856.53;4844256;29;20494;-52
2021/07/25 06:21:17;;;;;;;4.70;2.40;;;;;;;23.34;38.92;99868.38;4855732;29;20080;-57
2021/07/25 06:23:47;;;;;;;5.35;2.40;;;;;;;23.47;39.28;99867.25;4852813;29;20571;-52
2021/07/25 06:26:13;;;;;;;6.90;2.33;;;;;;;23.73;38.63;99867.66;4851499;29;20069;-52
2021/07/25 06:28:38;;;;;;;5.65;2.50;;;;;;;23.72;38.58;99876.59;4865757;29;20041;-55
2021/07/25 06:31:04;;;;;;;9.98;2.72;;;;;;;23.80;38.56;99874.16;4864490;29;20049;-54
2021/07/25 06:33:30;;;;;;;6.20;2.55;;;;;;;23.66;38.25;99871.81;4859675;29;20041;-50
2021/07/25 06:35:56;;;;;;;7.00;2.90;;;;;;;23.74;38.41;99868.50;4859905;29;20405;-52
2021/07/25 06:38:23;;;;;;;9.20;3.30;;;;;;;23.95;38.72;99877.28;4859259;29;20045;-52
2021/07/25 06:40:51;;;;;;;6.82;2.78;;;;;;;24.49;38.03;99874.31;4859757;29;20420;-53
2021/07/25 06:43:17;;;;;;;5.25;2.78;;;;;;;24.78;36.91;99874.34;4858527;29;20480;-56
2021/07/25 06:45:43;;;;;;;6.22;2.75;;;;;;;25.02;36.53;99868.66;4859659;29;20063;-50
2021/07/25 06:48:23;;;;;;;6.63;3.15;;;;;;;26.04;35.39;99874.06;4849064;29;20042;-52
2021/07/25 06:50:50;;;;;;;7.78;3.10;;;;;;;27.08;33.45;99875.44;4853128;29;20136;-50
2021/07/25 06:53:17;;;;;;;6.05;3.03;;;;;;;27.88;32.65;99877.09;4846636;29;20060;-53
2021/07/25 06:55:42;;;;;;;4.07;2.38;;;;;;;27.94;31.38;99884.47;4863376;29;20160;-50
2021/07/25 06:58:08;;;;;;;6.95;3.03;;;;;;;27.83;31.92;99884.75;4852967;29;20117;-50
2021/07/25 07:00:34;;;;;;;4.63;2.70;;;;;;;28.06;31.57;99882.34;4850931;29;20128;-49
2021/07/25 07:03:00;;;;;;;4.32;2.20;;;;;;;28.13;31.35;99886.94;4856262;29;20053;-51
2021/07/25 07:05:28;;;;;;;6.47;3.00;;;;;;;28.02;31.10;99884.50;4854436;29;20037;-52
2021/07/25 07:07:56;;;;;;;8.05;2.40;;;;;;;28.07;30.96;99889.38;4854318;29;20139;-53
2021/07/25 07:10:31;;;;;;;4.93;2.28;;;;;;;28.22;30.27;99894.00;4851021;29;20073;-50
2021/07/25 07:12:58;;;;;;;4.50;2.20;;;;;;;27.54;31.31;99893.03;4852524;29;20041;-50
2021/07/25 07:15:26;;;;;;;7.82;2.90;;;;;;;27.38;32.05;99890.22;4849019;29;20176;-50
2021/07/25 07:17:54;;;;;;;5.00;2.30;;;;;;;28.05;30.25;99896.72;4848467;29;20041;-51
2021/07/25 07:20:20;;;;;;;5.18;2.33;;;;;;;29.58;28.06;99895.44;4854195;29;20140;-48
2021/07/25 07:22:59;;;;;;;4.35;2.38;;;;;;;31.27;25.32;99903.84;4855594;29;20057;-49
2021/07/25 07:25:28;;;;;;;7.15;2.60;;;;;;;32.67;24.38;99899.34;4853211;29;20054;-52
2021/07/25 07:27:54;;;;;;;5.80;2.00;;;;;;;33.40;22.63;99900.09;4853629;29;20037;-53
2021/07/25 07:30:20;;;;;;;4.13;2.00;;;;;;;34.00;21.84;99891.47;4855530;29;20462;-52
2021/07/25 07:32:46;;;;;;;2.95;2.55;;;;;;;35.05;20.75;99893.78;4848780;29;20053;-52
2021/07/25 07:35:12;;;;;;;6.93;2.80;;;;;;;35.81;20.67;99889.66;4856713;29;20045;-52
2021/07/25 07:37:38;;;;;;;7.80;2.83;;;;;;;36.86;19.71;99893.91;4856814;29;20054;-51
2021/07/25 07:40:04;;;;;;;6.07;2.67;;;;;;;37.62;18.80;99891.09;4846231;29;20037;-53
2021/07/25 07:42:30;;;;;;;2.90;2.30;;;;;;;38.17;18.30;99895.56;4855306;29;20042;-54
2021/07/25 07:44:56;;;;;;;4.25;2.45;;;;;;;38.06;17.56;99900.91;4867169;29;20056;-53
2021/07/25 07:47:23;;;;;;;7.05;2.50;;;;;;;37.75;18.32;99896.41;4854575;29;20137;-52
2021/07/25 07:49:52;;;;;;;4.30;2.60;;;;;;;38.59;17.65;99903.84;4852639;29;20065;-51
2021/07/25 07:52:17;;;;;;;3.63;2.60;;;;;;;36.94;18.55;99896.38;4848067;29;20109;-52
2021/07/25 07:54:44;;;;;;;4.50;1.90;;;;;;;34.58;20.52;99881.16;4845649;29;20651;-52
2021/07/25 07:57:09;;;;;;;2.70;1.67;;;;;;;32.75;23.08;99888.47;4842055;29;20041;-54
2021/07/25 07:59:35;;;;;;;3.15;1.92;;;;;;;31.39;24.74;99887.13;4847758;29;20098;-54
2021/07/25 08:02:01;;;;;;;5.75;2.17;;;;;;;30.30;25.52;99881.88;4847809;29;20040;-53
2021/07/25 08:04:26;;;;;;;6.20;2.60;;;;;;;29.72;26.86;99881.38;4841252;29;20053;-55
2021/07/25 08:06:53;;;;;;;2.75;1.80;;;;;;;28.94;27.29;99879.16;4849312;29;20081;-51
2021/07/25 08:09:19;;;;;;;4.85;1.73;;;;;;;28.50;28.31;99877.72;4859958;29;20049;-56
2021/07/25 08:11:45;;;;;;;5.55;1.95;;;;;;;28.16;29.12;99878.56;4857650;29;20101;-53
2021/07/25 08:14:17;;;;;;;3.60;1.92;;;;;;;27.83;29.54;99876.72;4859249;29;20044;-51
2021/07/25 08:16:42;;;;;;;7.90;2.60;;;;;;;27.52;29.86;99872.84;4867512;29;20067;-54
2021/07/25 08:19:09;;;;;;;9.65;2.40;;;;;;;27.31;30.34;99873.16;4860523;29;20049;-52
2021/07/25 08:21:35;;;;;;;7.30;2.70;;;;;;;27.17;31.05;99877.19;4855218;29;20689;-52
2021/07/25 08:24:01;;;;;;;3.00;1.42;;;;;;;27.00;31.26;99880.72;4842249;29;20053;-51
2021/07/25 08:26:27;;;;;;;4.15;1.80;;;;;;;26.91;31.60;99884.28;4847008;29;20054;-52
2021/07/25 08:28:53;;;;;;;8.68;2.40;;;;;;;26.79;31.94;99880.16;4858540;29;20555;-54
2021/07/25 08:31:21;;;;;;;9.75;3.47;;;;;;;26.68;32.41;99880.38;4844197;29;20592;-55
2021/07/25 08:33:51;;;;;;;4.88;1.90;;;;;;;26.53;32.62;99883.56;4846004;29;20137;-52
2021/07/25 08:36:16;;;;;;;3.33;1.77;;;;;;;26.37;32.05;99874.53;4851688;29;20041;-55
2021/07/25 08:38:42;;;;;;;3.40;1.42;;;;;;;26.24;31.89;99882.84;4855979;29;20427;-53
2021/07/25 08:41:17;;;;;;;4.68;2.13;;;;;;;26.40;31.67;99877.72;4855997;29;20512;-52
2021/07/25 08:43:46;;;;;;;5.07;2.85;;;;;;;26.68;32.04;99883.88;4853710;29;20532;-53
2021/07/25 08:46:16;;;;;;;5.00;1.40;;;;;;;26.82;31.79;99893.19;4856053;29;20069;-54
2021/07/25 08:48:52;;;;;;;5.32;2.30;;;;;;;26.89;31.31;99880.97;4852893;29;20073;-55
2021/07/25 08:51:23;;;;;;;7.22;2.00;;;;;;;26.92;31.60;99884.16;4851640;29;20057;-55
2021/07/25 08:54:08;;;;;;;5.57;2.03;;;;;;;26.90;32.27;99891.44;4851905;29;20508;-51
2021/07/25 08:56:35;;;;;;;5.50;1.90;;;;;;;26.79;32.24;99885.50;4852204;29;20509;-55
2021/07/25 08:59:03;;;;;;;1.98;1.35;;;;;;;26.64;32.40;99885.16;4851466;29;20054;-52
2021/07/25 09:01:36;;;;;;;2.33;1.50;;;;;;;26.52;32.67;99897.88;4843472;29;20402;-53
2021/07/25 09:04:03;;;;;;;2.97;2.17;;;;;;;26.39;33.30;99893.84;4854872;29;20321;-52
2021/07/25 09:06:52;;;;;;;9.23;2.05;;;;;;;26.33;33.12;99891.78;4847403;29;20512;-54
2021/07/25 09:09:19;;;;;;;4.25;1.33;;;;;;;26.20;32.37;99888.59;4844509;29;20045;-52
2021/07/25 09:11:48;;;;;;;5.32;1.48;;;;;;;26.16;31.99;99896.06;4848857;29;20046;-54
2021/07/25 09:14:14;;;;;;;3.22;1.52;;;;;;;26.24;31.83;99895.34;4861290;29;20041;-53
2021/07/25 09:16:40;;;;;;;2.00;1.17;;;;;;;26.23;31.63;99899.81;4864321;29;20041;-53
2021/07/25 09:19:05;;;;;;;6.32;1.35;;;;;;;26.13;31.78;99891.00;4866469;29;20412;-52
2021/07/25 09:21:50;;;;;;;2.88;1.67;;;;;;;26.23;31.58;99898.97;4868907;29;20413;-54
2021/07/25 09:24:25;;;;;;;1.73;1.55;;;;;;;26.34;31.70;99896.13;4868352;29;20094;-51
2021/07/25 09:26:58;;;;;;;1.80;1.20;;;;;;;26.68;31.84;99893.72;4865165;29;20053;-50
2021/07/25 09:29:35;;;;;;;14.68;1.85;;;;;;;27.15;31.80;99905.91;4863882;29;20041;-55
2021/07/25 09:32:19;;;;;;;3.80;1.70;;;;;;;27.38;31.50;99899.06;4857101;29;20049;-53
2021/07/25 09:34:46;;;;;;;2.53;1.33;;;;;;;27.34;31.71;99900.38;4844846;29;20037;-54
2021/07/25 09:37:19;;;;;;;6.43;2.10;;;;;;;27.21;31.88;99902.63;4859454;29;20051;-54
2021/07/25 09:39:51;;;;;;;4.75;1.70;;;;;;;26.92;32.70;99907.31;4857675;29;20132;-54
2021/07/25 09:42:26;;;;;;;2.97;1.63;;;;;;;26.59;33.04;99900.75;4859146;29;20050;-53
2021/07/25 09:44:56;;;;;;;6.28;2.38;;;;;;;26.25;33.46;99905.88;4863573;29;20048;-53
2021/07/25 09:47:34;;;;;;;3.17;1.80;;;;;;;25.96;34.52;99910.44;4858478;29;20072;-54
2021/07/25 09:50:01;;;;;;;3.45;1.77;;;;;;;25.70;34.61;99911.03;4849177;29;20140;-54
2021/07/25 09:52:31;;;;;;;2.83;1.70;;;;;;;25.41;34.70;99907.56;4853843;29;20162;-53
2021/07/25 09:54:58;;;;;;;3.53;2.20;;;;;;;25.14;34.81;99912.75;4845414;29;20539;-55
2021/07/25 09:57:25;;;;;;;3.95;1.60;;;;;;;24.91;35.24;99906.88;4857230;29;20583;-48
2021/07/25 09:59:53;;;;;;;5.82;3.05;;;;;;;24.70;36.03;99917.59;5339744;23;20023;-60
2021/07/25 10:02:37;;;;;;;23.88;7.38;;;;;;;24.47;36.41;99905.47;4830139;29;20094;-53
2021/07/25 10:05:06;;;;;;;15.45;3.95;;;;;;;24.32;36.65;99906.84;4806473;29;20051;-58
2021/07/25 10:07:33;;;;;;;19.75;5.72;;;;;;;24.16;36.77;99915.28;4824152;29;20042;-53
2021/07/25 10:10:02;;;;;;;2.85;1.40;;;;;;;24.03;37.25;99917.28;4813936;29;20548;-53
2021/07/25 10:12:29;;;;;;;;;;;;;;;23.91;37.72;99910.41;4804203;29;20409;-52
2021/07/25 10:14:58;;;;;;;3.33;1.45;;;;;;;23.82;38.16;99919.13;4803005;29;19925;-54
2021/07/25 10:17:25;;;;;;;5.05;1.40;;;;;;;23.73;38.16;99922.56;4804687;29;20538;-52
2021/07/25 10:19:53;;;;;;;6.95;1.80;;;;;;;23.69;38.33;99923.81;4808200;29;20046;-54
2021/07/25 10:22:20;;;;;;;4.10;1.92;;;;;;;23.68;38.60;99922.13;4805525;29;20569;-51
2021/07/25 10:24:49;;;;;;;4.68;2.00;;;;;;;23.70;38.75;99931.66;4809525;29;20071;-60
2021/07/25 10:27:19;;;;;;;2.95;1.80;;;;;;;23.77;38.92;99929.31;4805811;29;20062;-46
2021/07/25 10:29:46;;;;;;;5.03;2.83;;;;;;;23.85;38.93;99937.47;4805711;29;20046;-60
2021/07/25 10:32:11;;;;;;;29.70;3.72;;;;;;;23.99;38.74;99929.16;4788562;29;20092;-52
2021/07/25 10:34:38;;;;;;;2.80;1.38;;;;;;;24.15;38.46;99923.38;4799891;29;20198;-55
2021/07/25 10:37:04;;;;;;;1.85;1.48;;;;;;;24.33;38.36;99932.44;4794333;29;20055;-56
2021/07/25 10:39:31;;;;;;;3.50;1.80;;;;;;;24.56;37.99;99939.22;4787801;29;20055;-56
2021/07/25 10:41:59;;;;;;;7.22;2.20;;;;;;;24.89;37.71;99936.25;4796370;29;20046;-54
2021/07/25 10:44:25;;;;;;;5.13;2.08;;;;;;;25.29;36.78;99928.16;4803782;29;20047;-49
2021/07/25 10:47:26;;;;;;;5.53;2.58;;;;;;;25.96;35.71;99924.59;4804084;29;20434;-60
2021/07/25 10:49:57;;;;;;;5.47;2.72;;;;;;;27.40;34.44;99926.47;4804762;29;20062;-59
2021/07/25 10:52:23;;;;;;;5.40;1.70;;;;;;;28.50;32.25;99929.38;4801072;29;20111;-58
2021/07/25 10:54:48;;;;;;;2.35;1.70;;;;;;;29.41;30.13;99935.69;4780377;30;20527;-57
2021/07/25 10:57:15;;;;;;;6.97;2.92;;;;;;;29.42;29.72;99929.28;4786981;29;20051;-56
2021/07/25 10:59:52;;;;;;;2.38;1.25;;;;;;;29.05;29.37;99931.56;4760064;29;20449;-56
2021/07/25 11:02:26;;;;;;;3.15;1.75;;;;;;;28.57;30.04;99929.59;4805148;29;20057;-58
2021/07/25 11:04:55;;;;;;;2.55;1.30;;;;;;;28.21;30.93;99931.59;4814410;29;20506;-59
2021/07/25 11:07:24;;;;;;;5.13;1.50;;;;;;;27.85;31.48;99928.16;4812279;29;20051;-58
2021/07/25 11:10:09;;;;;;;3.22;2.50;;;;;;;27.60;32.53;99929.81;4810990;29;20062;-58
2021/07/25 11:12:50;;;;;;;4.57;1.95;;;;;;;27.85;31.97;99922.81;4808915;29;20395;-61
2021/07/25 11:15:28;;;;;;;6.55;2.00;;;;;;;28.23;31.57;99927.75;4805056;29;20047;-61
2021/07/25 11:17:55;;;;;;;4.18;1.85;;;;;;;29.35;29.45;99924.78;4804385;29;20570;-60
2021/07/25 11:20:55;;;;;;;3.53;2.03;;;;;;;30.38;28.50;99923.09;4813651;29;20065;-59
2021/07/25 11:23:21;;;;;;;3.08;1.20;;;;;;;30.71;27.08;99932.72;4802650;29;20053;-62
2021/07/25 11:25:55;;;;;;;4.40;1.50;;;;;;;31.08;26.39;99934.72;4796616;29;20051;-60
2021/07/25 11:28:40;;;;;;;9.10;2.70;;;;;;;31.23;26.03;99938.31;4813687;29;20051;-60
2021/07/25 11:31:10;;;;;;;5.15;1.48;;;;;;;31.29;25.75;99928.69;4807207;29;20051;-60
2021/07/25 11:33:45;;;;;;;4.55;1.42;;;;;;;31.52;25.78;99927.63;4787240;29;20047;-54
2021/07/25 11:36:15;;;;;;;4.43;1.50;;;;;;;32.63;24.90;99927.66;4787187;29;20046;-51
2021/07/25 11:38:42;;;;;;;3.30;2.10;;;;;;;33.38;23.62;99929.97;4788225;29;20055;-60
2021/07/25 11:41:08;;;;;;;3.47;2.20;;;;;;;34.79;21.92;99927.81;4808634;29;20498;-58